sensor_id;sensor_type;location;lat;lon;timestamp;P1;durP1;ratioP1;P2;durP2;ratioP2
76256;SDS011;65074;50.436;8.672;2023-01-13T00:01:11;0.20;;;0.20;;
76256;SDS011;65074;50.436;8.672;2023-01-13T00:03:38;0.32;;;0.25;;
76256;SDS011;65074;50.436;8.672;2023-01-13T00:06:04;0.40;;;0.20;;
76256;SDS011;65074;50.436;8.672;2023-01-13T00:08:30;0.20;;;0.20;;
76256;SDS011;65074;50.436;8.672;2023-01-13T00:10:56;0.20;;;0.20;;
76256;SDS011;65074;50.436;8.672;2023-01-13T00:13:22;1.55;;;0.35;;
76256;SDS011;65074;50.436;8.672;2023-01-13T00:16:01;0.15;;;0.13;;
76256;SDS011;65074;50.436;8.672;2023-01-13T00:18:28;0.30;;;0.20;;
76256;SDS011;65074;50.436;8.672;2023-01-13T00:21:04;0.65;;;0.25;;
76256;SDS011;65074;50.436;8.672;2023-01-13T00:23:37;0.32;;;0.30;;
76256;SDS011;65074;50.436;8.672;2023-01-13T00:26:07;0.30;;;0.25;;
76256;SDS011;65074;50.436;8.672;2023-01-13T00:28:35;0.20;;;0.20;;
76256;SDS011;65074;50.436;8.672;2023-01-13T00:31:06;0.43;;;0.35;;
76256;SDS011;65074;50.436;8.672;2023-01-13T00:33:32;1.13;;;0.20;;
76256;SDS011;65074;50.436;8.672;2023-01-13T00:35:59;0.25;;;0.15;;
76256;SDS011;65074;50.436;8.672;2023-01-13T00:38:26;0.20;;;0.15;;
76256;SDS011;65074;50.436;8.672;2023-01-13T00:41:02;0.32;;;0.20;;
76256;SDS011;65074;50.436;8.672;2023-01-13T00:43:32;0.20;;;0.20;;
76256;SDS011;65074;50.436;8.672;2023-01-13T00:45:59;0.20;;;0.20;;
76256;SDS011;65074;50.436;8.672;2023-01-13T00:48:25;0.28;;;0.28;;
76256;SDS011;65074;50.436;8.672;2023-01-13T00:51:01;0.40;;;0.30;;
76256;SDS011;65074;50.436;8.672;2023-01-13T00:53:32;0.52;;;0.20;;
76256;SDS011;65074;50.436;8.672;2023-01-13T00:58:25;1.40;;;0.20;;
76256;SDS011;65074;50.436;8.672;2023-01-13T01:00:50;0.75;;;0.10;;
76256;SDS011;65074;50.436;8.672;2023-01-13T01:03:16;0.10;;;0.10;;
76256;SDS011;65074;50.436;8.672;2023-01-13T01:05:41;0.43;;;0.20;;
76256;SDS011;65074;50.436;8.672;2023-01-13T01:08:07;0.38;;;0.20;;
76256;SDS011;65074;50.436;8.672;2023-01-13T01:10:32;0.20;;;0.10;;
76256;SDS011;65074;50.436;8.672;2023-01-13T01:12:57;0.22;;;0.20;;
76256;SDS011;65074;50.436;8.672;2023-01-13T01:15:23;0.38;;;0.20;;
76256;SDS011;65074;50.436;8.672;2023-01-13T01:17:48;0.85;;;0.40;;
76256;SDS011;65074;50.436;8.672;2023-01-13T01:20:13;0.10;;;0.10;;
76256;SDS011;65074;50.436;8.672;2023-01-13T01:22:39;0.30;;;0.20;;
76256;SDS011;65074;50.436;8.672;2023-01-13T01:25:05;0.85;;;0.17;;
76256;SDS011;65074;50.436;8.672;2023-01-13T01:27:30;0.60;;;0.30;;
76256;SDS011;65074;50.436;8.672;2023-01-13T01:29:56;1.77;;;0.20;;
76256;SDS011;65074;50.436;8.672;2023-01-13T01:32:21;0.52;;;0.40;;
76256;SDS011;65074;50.436;8.672;2023-01-13T01:34:46;1.23;;;0.40;;
76256;SDS011;65074;50.436;8.672;2023-01-13T01:37:12;0.15;;;0.13;;
76256;SDS011;65074;50.436;8.672;2023-01-13T01:39:37;0.20;;;0.20;;
76256;SDS011;65074;50.436;8.672;2023-01-13T01:42:02;0.65;;;0.13;;
76256;SDS011;65074;50.436;8.672;2023-01-13T01:44:55;0.95;;;0.30;;
76256;SDS011;65074;50.436;8.672;2023-01-13T01:47:24;0.52;;;0.20;;
76256;SDS011;65074;50.436;8.672;2023-01-13T01:49:52;0.20;;;0.20;;
76256;SDS011;65074;50.436;8.672;2023-01-13T01:52:22;0.17;;;0.17;;
76256;SDS011;65074;50.436;8.672;2023-01-13T01:55:02;0.20;;;0.20;;
76256;SDS011;65074;50.436;8.672;2023-01-13T01:57:35;0.30;;;0.20;;
76256;SDS011;65074;50.436;8.672;2023-01-13T02:00:06;2.53;;;0.43;;
76256;SDS011;65074;50.436;8.672;2023-01-13T02:02:37;0.45;;;0.13;;
76256;SDS011;65074;50.436;8.672;2023-01-13T02:05:04;0.95;;;0.28;;
76256;SDS011;65074;50.436;8.672;2023-01-13T02:07:30;1.48;;;0.25;;
76256;SDS011;65074;50.436;8.672;2023-01-13T02:09:58;0.22;;;0.20;;
76256;SDS011;65074;50.436;8.672;2023-01-13T02:12:27;0.43;;;0.30;;
76256;SDS011;65074;50.436;8.672;2023-01-13T02:15:03;0.17;;;0.17;;
76256;SDS011;65074;50.436;8.672;2023-01-13T02:17:36;0.20;;;0.15;;
76256;SDS011;65074;50.436;8.672;2023-01-13T02:31:58;0.65;;;0.30;;
76256;SDS011;65074;50.436;8.672;2023-01-13T02:34:41;0.10;;;0.10;;
76256;SDS011;65074;50.436;8.672;2023-01-13T02:37:22;0.20;;;0.15;;
76256;SDS011;65074;50.436;8.672;2023-01-13T02:39:54;0.20;;;0.20;;
76256;SDS011;65074;50.436;8.672;2023-01-13T02:45:16;0.15;;;0.10;;
76256;SDS011;65074;50.436;8.672;2023-01-13T02:47:46;0.15;;;0.10;;
76256;SDS011;65074;50.436;8.672;2023-01-13T02:50:18;0.25;;;0.25;;
76256;SDS011;65074;50.436;8.672;2023-01-13T02:52:50;0.98;;;0.30;;
76256;SDS011;65074;50.436;8.672;2023-01-13T02:55:24;0.20;;;0.10;;
76256;SDS011;65074;50.436;8.672;2023-01-13T02:57:53;0.30;;;0.10;;
76256;SDS011;65074;50.436;8.672;2023-01-13T03:00:22;0.73;;;0.00;;
76256;SDS011;65074;50.436;8.672;2023-01-13T03:02:48;0.10;;;0.10;;
76256;SDS011;65074;50.436;8.672;2023-01-13T03:05:14;0.13;;;0.05;;
76256;SDS011;65074;50.436;8.672;2023-01-13T03:11:04;0.10;;;0.10;;
76256;SDS011;65074;50.436;8.672;2023-01-13T03:19:09;0.10;;;0.10;;
76256;SDS011;65074;50.436;8.672;2023-01-13T03:26:55;0.10;;;0.10;;
76256;SDS011;65074;50.436;8.672;2023-01-13T03:29:48;1.58;;;0.17;;
76256;SDS011;65074;50.436;8.672;2023-01-13T03:32:27;0.20;;;0.20;;
76256;SDS011;65074;50.436;8.672;2023-01-13T03:35:04;0.28;;;0.05;;
76256;SDS011;65074;50.436;8.672;2023-01-13T03:37:32;0.40;;;0.20;;
76256;SDS011;65074;50.436;8.672;2023-01-13T03:40:12;0.00;;;0.00;;
76256;SDS011;65074;50.436;8.672;2023-01-13T03:42:41;0.45;;;0.20;;
76256;SDS011;65074;50.436;8.672;2023-01-13T03:45:30;0.10;;;0.10;;
76256;SDS011;65074;50.436;8.672;2023-01-13T03:48:00;0.10;;;0.10;;
76256;SDS011;65074;50.436;8.672;2023-01-13T03:50:36;0.63;;;0.13;;
76256;SDS011;65074;50.436;8.672;2023-01-13T03:53:06;0.32;;;0.20;;
76256;SDS011;65074;50.436;8.672;2023-01-13T03:55:37;0.20;;;0.10;;
76256;SDS011;65074;50.436;8.672;2023-01-13T03:58:22;0.10;;;0.10;;
76256;SDS011;65074;50.436;8.672;2023-01-13T04:03:38;0.00;;;0.00;;
76256;SDS011;65074;50.436;8.672;2023-01-13T04:06:15;0.90;;;0.13;;
76256;SDS011;65074;50.436;8.672;2023-01-13T04:08:52;0.40;;;0.20;;
76256;SDS011;65074;50.436;8.672;2023-01-13T04:11:27;0.13;;;0.13;;
76256;SDS011;65074;50.436;8.672;2023-01-13T04:13:56;0.20;;;0.20;;
76256;SDS011;65074;50.436;8.672;2023-01-13T04:16:23;0.20;;;0.20;;
76256;SDS011;65074;50.436;8.672;2023-01-13T04:18:49;0.13;;;0.13;;
76256;SDS011;65074;50.436;8.672;2023-01-13T04:21:14;0.65;;;0.10;;
76256;SDS011;65074;50.436;8.672;2023-01-13T04:23:40;0.10;;;0.10;;
76256;SDS011;65074;50.436;8.672;2023-01-13T04:26:05;0.10;;;0.10;;
76256;SDS011;65074;50.436;8.672;2023-01-13T04:28:30;0.00;;;0.00;;
76256;SDS011;65074;50.436;8.672;2023-01-13T04:30:57;0.10;;;0.10;;
76256;SDS011;65074;50.436;8.672;2023-01-13T04:33:22;0.30;;;0.10;;
76256;SDS011;65074;50.436;8.672;2023-01-13T04:35:48;0.30;;;0.13;;
76256;SDS011;65074;50.436;8.672;2023-01-13T04:38:15;0.55;;;0.20;;
76256;SDS011;65074;50.436;8.672;2023-01-13T04:40:42;0.10;;;0.10;;
76256;SDS011;65074;50.436;8.672;2023-01-13T04:43:08;0.40;;;0.10;;
76256;SDS011;65074;50.436;8.672;2023-01-13T04:45:33;0.38;;;0.13;;
76256;SDS011;65074;50.436;8.672;2023-01-13T04:47:59;0.22;;;0.10;;
76256;SDS011;65074;50.436;8.672;2023-01-13T04:50:25;0.10;;;0.10;;
76256;SDS011;65074;50.436;8.672;2023-01-13T04:52:51;0.35;;;0.20;;
76256;SDS011;65074;50.436;8.672;2023-01-13T04:55:17;0.32;;;0.20;;
76256;SDS011;65074;50.436;8.672;2023-01-13T04:57:44;0.20;;;0.10;;
76256;SDS011;65074;50.436;8.672;2023-01-13T05:00:10;0.10;;;0.10;;
76256;SDS011;65074;50.436;8.672;2023-01-13T05:02:37;0.15;;;0.00;;
76256;SDS011;65074;50.436;8.672;2023-01-13T05:05:03;0.10;;;0.10;;
76256;SDS011;65074;50.436;8.672;2023-01-13T05:07:29;0.63;;;0.10;;
76256;SDS011;65074;50.436;8.672;2023-01-13T05:09:54;0.32;;;0.00;;
76256;SDS011;65074;50.436;8.672;2023-01-13T05:12:20;1.13;;;0.20;;
76256;SDS011;65074;50.436;8.672;2023-01-13T05:15:04;0.50;;;0.10;;
76256;SDS011;65074;50.436;8.672;2023-01-13T05:17:48;0.15;;;0.00;;
76256;SDS011;65074;50.436;8.672;2023-01-13T05:20:14;0.25;;;0.10;;
76256;SDS011;65074;50.436;8.672;2023-01-13T05:22:40;0.10;;;0.00;;
76256;SDS011;65074;50.436;8.672;2023-01-13T05:25:24;0.13;;;0.08;;
76256;SDS011;65074;50.436;8.672;2023-01-13T05:27:54;0.98;;;0.10;;
76256;SDS011;65074;50.436;8.672;2023-01-13T05:30:22;0.55;;;0.00;;
76256;SDS011;65074;50.436;8.672;2023-01-13T05:32:52;0.10;;;0.00;;
76256;SDS011;65074;50.436;8.672;2023-01-13T05:35:17;0.10;;;0.10;;
76256;SDS011;65074;50.436;8.672;2023-01-13T05:37:43;0.30;;;0.10;;
76256;SDS011;65074;50.436;8.672;2023-01-13T05:40:10;0.08;;;0.00;;
76256;SDS011;65074;50.436;8.672;2023-01-13T05:42:59;0.10;;;0.10;;
76256;SDS011;65074;50.436;8.672;2023-01-13T05:48:22;0.20;;;0.20;;
76256;SDS011;65074;50.436;8.672;2023-01-13T05:50:49;0.43;;;0.20;;
76256;SDS011;65074;50.436;8.672;2023-01-13T05:53:15;0.00;;;0.00;;
76256;SDS011;65074;50.436;8.672;2023-01-13T05:55:41;0.10;;;0.08;;
76256;SDS011;65074;50.436;8.672;2023-01-13T05:58:09;0.22;;;0.03;;
76256;SDS011;65074;50.436;8.672;2023-01-13T06:00:35;0.30;;;0.20;;
76256;SDS011;65074;50.436;8.672;2023-01-13T06:03:01;1.55;;;0.35;;
76256;SDS011;65074;50.436;8.672;2023-01-13T06:05:27;0.38;;;0.15;;
76256;SDS011;65074;50.436;8.672;2023-01-13T06:07:57;0.98;;;0.25;;
76256;SDS011;65074;50.436;8.672;2023-01-13T06:10:26;1.77;;;0.30;;
76256;SDS011;65074;50.436;8.672;2023-01-13T06:12:52;0.55;;;0.30;;
76256;SDS011;65074;50.436;8.672;2023-01-13T06:15:18;1.38;;;0.40;;
76256;SDS011;65074;50.436;8.672;2023-01-13T06:17:44;2.13;;;0.30;;
76256;SDS011;65074;50.436;8.672;2023-01-13T06:20:10;2.80;;;0.63;;
76256;SDS011;65074;50.436;8.672;2023-01-13T06:22:38;1.10;;;0.47;;
76256;SDS011;65074;50.436;8.672;2023-01-13T06:25:10;0.50;;;0.28;;
76256;SDS011;65074;50.436;8.672;2023-01-13T06:27:43;1.08;;;0.10;;
76256;SDS011;65074;50.436;8.672;2023-01-13T06:30:09;0.20;;;0.20;;
76256;SDS011;65074;50.436;8.672;2023-01-13T06:32:36;1.50;;;0.40;;
76256;SDS011;65074;50.436;8.672;2023-01-13T06:35:08;1.08;;;0.20;;
76256;SDS011;65074;50.436;8.672;2023-01-13T06:40:04;1.73;;;0.50;;
76256;SDS011;65074;50.436;8.672;2023-01-13T06:42:32;0.65;;;0.32;;
76256;SDS011;65074;50.436;8.672;2023-01-13T06:45:19;1.60;;;0.68;;
76256;SDS011;65074;50.436;8.672;2023-01-13T06:47:45;1.08;;;0.40;;
76256;SDS011;65074;50.436;8.672;2023-01-13T06:50:11;0.95;;;0.32;;
76256;SDS011;65074;50.436;8.672;2023-01-13T06:52:36;0.52;;;0.38;;
76256;SDS011;65074;50.436;8.672;2023-01-13T06:55:01;1.77;;;0.35;;
76256;SDS011;65074;50.436;8.672;2023-01-13T06:57:27;0.60;;;0.20;;
76256;SDS011;65074;50.436;8.672;2023-01-13T06:59:53;0.10;;;0.10;;
76256;SDS011;65074;50.436;8.672;2023-01-13T07:02:18;0.40;;;0.20;;
76256;SDS011;65074;50.436;8.672;2023-01-13T07:04:43;1.38;;;0.47;;
76256;SDS011;65074;50.436;8.672;2023-01-13T07:07:10;2.38;;;0.20;;
76256;SDS011;65074;50.436;8.672;2023-01-13T07:09:36;1.45;;;0.52;;
76256;SDS011;65074;50.436;8.672;2023-01-13T07:12:01;0.73;;;0.20;;
76256;SDS011;65074;50.436;8.672;2023-01-13T07:14:27;2.95;;;0.32;;
76256;SDS011;65074;50.436;8.672;2023-01-13T07:17:11;1.48;;;0.43;;
76256;SDS011;65074;50.436;8.672;2023-01-13T07:19:36;1.33;;;0.60;;
76256;SDS011;65074;50.436;8.672;2023-01-13T07:22:01;1.83;;;0.40;;
76256;SDS011;65074;50.436;8.672;2023-01-13T07:24:27;0.85;;;0.30;;
76256;SDS011;65074;50.436;8.672;2023-01-13T07:26:52;3.15;;;0.63;;
76256;SDS011;65074;50.436;8.672;2023-01-13T07:29:18;1.38;;;0.30;;
76256;SDS011;65074;50.436;8.672;2023-01-13T07:31:43;2.13;;;0.30;;
76256;SDS011;65074;50.436;8.672;2023-01-13T07:34:08;1.98;;;0.40;;
76256;SDS011;65074;50.436;8.672;2023-01-13T07:36:34;0.57;;;0.30;;
76256;SDS011;65074;50.436;8.672;2023-01-13T07:39:00;0.30;;;0.28;;
76256;SDS011;65074;50.436;8.672;2023-01-13T07:41:25;2.10;;;0.90;;
76256;SDS011;65074;50.436;8.672;2023-01-13T07:44:09;2.78;;;0.40;;
76256;SDS011;65074;50.436;8.672;2023-01-13T07:46:35;1.13;;;0.22;;
76256;SDS011;65074;50.436;8.672;2023-01-13T07:49:01;0.55;;;0.20;;
76256;SDS011;65074;50.436;8.672;2023-01-13T07:51:27;2.63;;;0.52;;
76256;SDS011;65074;50.436;8.672;2023-01-13T07:53:52;0.50;;;0.30;;
76256;SDS011;65074;50.436;8.672;2023-01-13T07:56:18;0.70;;;0.20;;
76256;SDS011;65074;50.436;8.672;2023-01-13T07:58:43;2.05;;;0.40;;
76256;SDS011;65074;50.436;8.672;2023-01-13T08:01:14;4.32;;;0.90;;
76256;SDS011;65074;50.436;8.672;2023-01-13T08:03:40;0.55;;;0.25;;
76256;SDS011;65074;50.436;8.672;2023-01-13T08:06:06;1.08;;;0.68;;
76256;SDS011;65074;50.436;8.672;2023-01-13T08:08:32;1.92;;;0.35;;
76256;SDS011;65074;50.436;8.672;2023-01-13T08:10:58;2.03;;;0.40;;
76256;SDS011;65074;50.436;8.672;2023-01-13T08:13:24;1.55;;;0.40;;
76256;SDS011;65074;50.436;8.672;2023-01-13T08:15:51;0.25;;;0.17;;
76256;SDS011;65074;50.436;8.672;2023-01-13T08:18:18;1.27;;;0.40;;
76256;SDS011;65074;50.436;8.672;2023-01-13T08:20:46;0.70;;;0.40;;
76256;SDS011;65074;50.436;8.672;2023-01-13T08:23:13;2.15;;;0.50;;
76256;SDS011;65074;50.436;8.672;2023-01-13T08:25:39;1.10;;;0.43;;
76256;SDS011;65074;50.436;8.672;2023-01-13T08:28:04;2.33;;;0.40;;
76256;SDS011;65074;50.436;8.672;2023-01-13T08:30:30;1.15;;;0.50;;
76256;SDS011;65074;50.436;8.672;2023-01-13T08:32:56;2.67;;;0.40;;
76256;SDS011;65074;50.436;8.672;2023-01-13T08:35:21;0.45;;;0.30;;
76256;SDS011;65074;50.436;8.672;2023-01-13T08:37:47;2.35;;;0.43;;
76256;SDS011;65074;50.436;8.672;2023-01-13T08:40:14;2.95;;;0.95;;
76256;SDS011;65074;50.436;8.672;2023-01-13T08:42:41;1.42;;;0.40;;
76256;SDS011;65074;50.436;8.672;2023-01-13T08:45:06;3.72;;;0.50;;
76256;SDS011;65074;50.436;8.672;2023-01-13T08:47:32;1.90;;;0.25;;
76256;SDS011;65074;50.436;8.672;2023-01-13T08:49:57;1.70;;;0.20;;
76256;SDS011;65074;50.436;8.672;2023-01-13T08:52:23;2.13;;;0.38;;
76256;SDS011;65074;50.436;8.672;2023-01-13T08:54:48;1.17;;;0.50;;
76256;SDS011;65074;50.436;8.672;2023-01-13T08:57:14;1.58;;;0.20;;
76256;SDS011;65074;50.436;8.672;2023-01-13T08:59:40;4.03;;;0.57;;
76256;SDS011;65074;50.436;8.672;2023-01-13T09:02:25;0.90;;;0.38;;
76256;SDS011;65074;50.436;8.672;2023-01-13T09:04:51;1.05;;;0.30;;
76256;SDS011;65074;50.436;8.672;2023-01-13T09:07:18;4.43;;;0.30;;
76256;SDS011;65074;50.436;8.672;2023-01-13T09:09:44;5.43;;;0.45;;
76256;SDS011;65074;50.436;8.672;2023-01-13T09:12:10;1.05;;;0.38;;
76256;SDS011;65074;50.436;8.672;2023-01-13T09:14:55;0.30;;;0.22;;
76256;SDS011;65074;50.436;8.672;2023-01-13T09:17:21;1.05;;;0.40;;
76256;SDS011;65074;50.436;8.672;2023-01-13T09:19:47;1.02;;;0.40;;
76256;SDS011;65074;50.436;8.672;2023-01-13T09:22:14;1.88;;;0.40;;
76256;SDS011;65074;50.436;8.672;2023-01-13T09:24:41;2.97;;;0.30;;
76256;SDS011;65074;50.436;8.672;2023-01-13T09:27:07;1.63;;;0.38;;
76256;SDS011;65074;50.436;8.672;2023-01-13T09:29:34;1.30;;;0.40;;
76256;SDS011;65074;50.436;8.672;2023-01-13T09:31:59;2.50;;;0.50;;
76256;SDS011;65074;50.436;8.672;2023-01-13T09:34:25;0.77;;;0.43;;
76256;SDS011;65074;50.436;8.672;2023-01-13T09:37:09;5.25;;;0.65;;
76256;SDS011;65074;50.436;8.672;2023-01-13T09:39:35;1.40;;;0.47;;
76256;SDS011;65074;50.436;8.672;2023-01-13T09:42:02;2.50;;;0.50;;
76256;SDS011;65074;50.436;8.672;2023-01-13T09:44:55;3.33;;;0.50;;
76256;SDS011;65074;50.436;8.672;2023-01-13T09:47:49;1.23;;;0.38;;
76256;SDS011;65074;50.436;8.672;2023-01-13T09:53:28;1.23;;;0.50;;
76256;SDS011;65074;50.436;8.672;2023-01-13T09:56:01;4.80;;;1.27;;
76256;SDS011;65074;50.436;8.672;2023-01-13T09:58:26;2.10;;;0.50;;
76256;SDS011;65074;50.436;8.672;2023-01-13T10:03:35;1.42;;;0.60;;
76256;SDS011;65074;50.436;8.672;2023-01-13T10:06:04;4.47;;;1.00;;
76256;SDS011;65074;50.436;8.672;2023-01-13T10:08:37;2.05;;;0.50;;
76256;SDS011;65074;50.436;8.672;2023-01-13T10:11:05;4.18;;;0.90;;
76256;SDS011;65074;50.436;8.672;2023-01-13T10:13:59;3.35;;;0.60;;
76256;SDS011;65074;50.436;8.672;2023-01-13T10:16:40;7.18;;;0.90;;
76256;SDS011;65074;50.436;8.672;2023-01-13T10:19:15;3.28;;;0.77;;
76256;SDS011;65074;50.436;8.672;2023-01-13T10:29:51;2.55;;;0.40;;
76256;SDS011;65074;50.436;8.672;2023-01-13T10:32:16;1.23;;;0.60;;
76256;SDS011;65074;50.436;8.672;2023-01-13T10:34:50;2.42;;;0.75;;
76256;SDS011;65074;50.436;8.672;2023-01-13T10:37:23;4.15;;;0.73;;
76256;SDS011;65074;50.436;8.672;2023-01-13T10:39:55;4.55;;;1.20;;
76256;SDS011;65074;50.436;8.672;2023-01-13T10:42:21;2.20;;;0.88;;
76256;SDS011;65074;50.436;8.672;2023-01-13T10:49:58;2.05;;;0.77;;
76256;SDS011;65074;50.436;8.672;2023-01-13T10:52:55;1.52;;;0.68;;
76256;SDS011;65074;50.436;8.672;2023-01-13T10:58:18;1.60;;;0.60;;
76256;SDS011;65074;50.436;8.672;2023-01-13T11:00:44;3.25;;;0.60;;
76256;SDS011;65074;50.436;8.672;2023-01-13T11:05:46;3.50;;;0.80;;
76256;SDS011;65074;50.436;8.672;2023-01-13T11:08:17;3.95;;;0.82;;
76256;SDS011;65074;50.436;8.672;2023-01-13T11:10:46;6.85;;;1.13;;
76256;SDS011;65074;50.436;8.672;2023-01-13T11:13:17;2.30;;;0.68;;
76256;SDS011;65074;50.436;8.672;2023-01-13T11:15:47;2.75;;;0.70;;
76256;SDS011;65074;50.436;8.672;2023-01-13T11:18:28;2.38;;;0.60;;
76256;SDS011;65074;50.436;8.672;2023-01-13T11:20:55;1.65;;;0.57;;
76256;SDS011;65074;50.436;8.672;2023-01-13T11:23:28;1.30;;;0.50;;
76256;SDS011;65074;50.436;8.672;2023-01-13T11:26:03;5.10;;;0.80;;
76256;SDS011;65074;50.436;8.672;2023-01-13T11:34:34;2.35;;;0.70;;
76256;SDS011;65074;50.436;8.672;2023-01-13T11:37:02;6.03;;;0.85;;
76256;SDS011;65074;50.436;8.672;2023-01-13T11:45:15;3.05;;;0.95;;
76256;SDS011;65074;50.436;8.672;2023-01-13T11:47:45;2.45;;;0.60;;
76256;SDS011;65074;50.436;8.672;2023-01-13T11:50:56;2.78;;;0.82;;
76256;SDS011;65074;50.436;8.672;2023-01-13T11:53:32;2.28;;;1.02;;
76256;SDS011;65074;50.436;8.672;2023-01-13T12:10:48;1.70;;;0.70;;
76256;SDS011;65074;50.436;8.672;2023-01-13T12:13:25;2.85;;;0.55;;
76256;SDS011;65074;50.436;8.672;2023-01-13T12:22:15;5.40;;;1.10;;
76256;SDS011;65074;50.436;8.672;2023-01-13T12:24:59;6.50;;;1.30;;
76256;SDS011;65074;50.436;8.672;2023-01-13T12:27:47;10.68;;;1.10;;
76256;SDS011;65074;50.436;8.672;2023-01-13T12:30:32;6.65;;;0.80;;
76256;SDS011;65074;50.436;8.672;2023-01-13T12:36:02;5.75;;;1.17;;
76256;SDS011;65074;50.436;8.672;2023-01-13T12:38:42;4.53;;;1.42;;
76256;SDS011;65074;50.436;8.672;2023-01-13T12:44:30;1.92;;;0.93;;
76256;SDS011;65074;50.436;8.672;2023-01-13T12:46:56;3.40;;;1.27;;
76256;SDS011;65074;50.436;8.672;2023-01-13T12:49:23;3.20;;;0.77;;
76256;SDS011;65074;50.436;8.672;2023-01-13T12:55:06;5.95;;;0.88;;
76256;SDS011;65074;50.436;8.672;2023-01-13T12:57:23;3.70;;;1.10;;
76256;SDS011;65074;50.436;8.672;2023-01-13T13:02:26;2.95;;;1.23;;
76256;SDS011;65074;50.436;8.672;2023-01-13T13:07:50;6.70;;;1.73;;
76256;SDS011;65074;50.436;8.672;2023-01-13T13:10:29;1.88;;;0.82;;
76256;SDS011;65074;50.436;8.672;2023-01-13T13:13:01;3.83;;;1.52;;
76256;SDS011;65074;50.436;8.672;2023-01-13T13:15:43;8.15;;;2.35;;
76256;SDS011;65074;50.436;8.672;2023-01-13T13:23:38;8.25;;;3.35;;
76256;SDS011;65074;50.436;8.672;2023-01-13T13:40:00;2.50;;;0.40;;
76256;SDS011;65074;50.436;8.672;2023-01-13T13:42:54;6.20;;;1.17;;
76256;SDS011;65074;50.436;8.672;2023-01-13T13:45:49;3.67;;;1.10;;
76256;SDS011;65074;50.436;8.672;2023-01-13T13:48:34;1.80;;;0.50;;
76256;SDS011;65074;50.436;8.672;2023-01-13T13:51:00;5.85;;;0.60;;
76256;SDS011;65074;50.436;8.672;2023-01-13T13:53:44;1.52;;;0.50;;
76256;SDS011;65074;50.436;8.672;2023-01-13T13:56:21;1.85;;;0.75;;
76256;SDS011;65074;50.436;8.672;2023-01-13T13:58:49;2.50;;;0.40;;
76256;SDS011;65074;50.436;8.672;2023-01-13T14:01:27;5.07;;;1.42;;
76256;SDS011;65074;50.436;8.672;2023-01-13T14:04:10;1.98;;;0.40;;
76256;SDS011;65074;50.436;8.672;2023-01-13T14:06:54;1.40;;;0.55;;
76256;SDS011;65074;50.436;8.672;2023-01-13T14:09:22;1.75;;;0.75;;
76256;SDS011;65074;50.436;8.672;2023-01-13T14:11:55;2.40;;;0.63;;
76256;SDS011;65074;50.436;8.672;2023-01-13T14:14:30;1.50;;;0.30;;
76256;SDS011;65074;50.436;8.672;2023-01-13T14:16:56;2.65;;;0.73;;
76256;SDS011;65074;50.436;8.672;2023-01-13T14:19:27;1.35;;;0.80;;
76256;SDS011;65074;50.436;8.672;2023-01-13T14:24:24;2.70;;;0.70;;
76256;SDS011;65074;50.436;8.672;2023-01-13T14:26:50;1.55;;;0.55;;
76256;SDS011;65074;50.436;8.672;2023-01-13T14:29:23;7.70;;;0.75;;
76256;SDS011;65074;50.436;8.672;2023-01-13T14:31:49;3.47;;;0.60;;
76256;SDS011;65074;50.436;8.672;2023-01-13T14:34:17;0.77;;;0.50;;
76256;SDS011;65074;50.436;8.672;2023-01-13T14:36:45;2.38;;;0.70;;
76256;SDS011;65074;50.436;8.672;2023-01-13T14:44:12;1.95;;;0.63;;
76256;SDS011;65074;50.436;8.672;2023-01-13T14:46:51;1.63;;;1.15;;
76256;SDS011;65074;50.436;8.672;2023-01-13T14:57:29;2.15;;;0.60;;
76256;SDS011;65074;50.436;8.672;2023-01-13T15:10:27;2.38;;;0.50;;
76256;SDS011;65074;50.436;8.672;2023-01-13T15:12:54;3.35;;;0.60;;
76256;SDS011;65074;50.436;8.672;2023-01-13T15:15:26;2.42;;;1.02;;
76256;SDS011;65074;50.436;8.672;2023-01-13T15:17:54;4.38;;;1.05;;
76256;SDS011;65074;50.436;8.672;2023-01-13T15:20:21;2.60;;;0.57;;
76256;SDS011;65074;50.436;8.672;2023-01-13T15:22:48;3.58;;;0.60;;
76256;SDS011;65074;50.436;8.672;2023-01-13T15:25:14;5.13;;;0.70;;
76256;SDS011;65074;50.436;8.672;2023-01-13T15:27:41;3.60;;;0.80;;
76256;SDS011;65074;50.436;8.672;2023-01-13T15:30:12;1.92;;;0.57;;
76256;SDS011;65074;50.436;8.672;2023-01-13T15:32:39;2.15;;;0.98;;
76256;SDS011;65074;50.436;8.672;2023-01-13T15:35:04;3.13;;;1.40;;
76256;SDS011;65074;50.436;8.672;2023-01-13T15:37:30;2.40;;;0.77;;
76256;SDS011;65074;50.436;8.672;2023-01-13T15:39:55;1.70;;;0.70;;
76256;SDS011;65074;50.436;8.672;2023-01-13T15:42:21;5.55;;;0.88;;
76256;SDS011;65074;50.436;8.672;2023-01-13T15:45:05;1.58;;;0.60;;
76256;SDS011;65074;50.436;8.672;2023-01-13T15:47:49;4.50;;;1.05;;
76256;SDS011;65074;50.436;8.672;2023-01-13T15:50:15;2.90;;;1.38;;
76256;SDS011;65074;50.436;8.672;2023-01-13T15:52:41;3.15;;;0.77;;
76256;SDS011;65074;50.436;8.672;2023-01-13T15:55:07;2.60;;;0.73;;
76256;SDS011;65074;50.436;8.672;2023-01-13T15:57:34;3.72;;;0.63;;
76256;SDS011;65074;50.436;8.672;2023-01-13T16:00:20;0.90;;;0.40;;
76256;SDS011;65074;50.436;8.672;2023-01-13T16:02:47;2.88;;;0.60;;
76256;SDS011;65074;50.436;8.672;2023-01-13T16:05:13;4.50;;;0.75;;
76256;SDS011;65074;50.436;8.672;2023-01-13T16:07:39;2.47;;;0.43;;
76256;SDS011;65074;50.436;8.672;2023-01-13T16:10:05;1.88;;;0.70;;
76256;SDS011;65074;50.436;8.672;2023-01-13T16:12:39;2.50;;;0.70;;
76256;SDS011;65074;50.436;8.672;2023-01-13T16:15:04;1.55;;;0.63;;
76256;SDS011;65074;50.436;8.672;2023-01-13T16:17:30;1.85;;;0.52;;
76256;SDS011;65074;50.436;8.672;2023-01-13T16:19:58;2.13;;;0.60;;
76256;SDS011;65074;50.436;8.672;2023-01-13T16:22:24;2.63;;;0.50;;
76256;SDS011;65074;50.436;8.672;2023-01-13T16:24:49;4.45;;;0.60;;
76256;SDS011;65074;50.436;8.672;2023-01-13T16:27:16;3.00;;;0.75;;
76256;SDS011;65074;50.436;8.672;2023-01-13T16:29:43;2.65;;;0.85;;
76256;SDS011;65074;50.436;8.672;2023-01-13T16:32:09;1.75;;;0.45;;
76256;SDS011;65074;50.436;8.672;2023-01-13T16:34:34;3.15;;;0.60;;
76256;SDS011;65074;50.436;8.672;2023-01-13T16:37:00;2.28;;;0.65;;
76256;SDS011;65074;50.436;8.672;2023-01-13T16:39:25;2.35;;;0.88;;
76256;SDS011;65074;50.436;8.672;2023-01-13T16:41:51;3.25;;;0.65;;
76256;SDS011;65074;50.436;8.672;2023-01-13T16:44:16;1.80;;;0.80;;
76256;SDS011;65074;50.436;8.672;2023-01-13T16:46:42;4.22;;;1.13;;
76256;SDS011;65074;50.436;8.672;2023-01-13T16:49:11;4.40;;;0.93;;
76256;SDS011;65074;50.436;8.672;2023-01-13T16:51:37;5.25;;;0.50;;
76256;SDS011;65074;50.436;8.672;2023-01-13T16:54:03;3.03;;;0.68;;
76256;SDS011;65074;50.436;8.672;2023-01-13T16:56:30;3.60;;;0.75;;
76256;SDS011;65074;50.436;8.672;2023-01-13T16:58:58;1.85;;;0.70;;
76256;SDS011;65074;50.436;8.672;2023-01-13T17:01:35;6.63;;;1.45;;
76256;SDS011;65074;50.436;8.672;2023-01-13T17:04:03;6.47;;;1.50;;
76256;SDS011;65074;50.436;8.672;2023-01-13T17:06:41;7.80;;;1.00;;
76256;SDS011;65074;50.436;8.672;2023-01-13T17:09:21;8.05;;;1.85;;
76256;SDS011;65074;50.436;8.672;2023-01-13T17:11:48;6.35;;;1.65;;
76256;SDS011;65074;50.436;8.672;2023-01-13T17:14:14;2.28;;;1.05;;
76256;SDS011;65074;50.436;8.672;2023-01-13T17:16:39;6.57;;;1.67;;
76256;SDS011;65074;50.436;8.672;2023-01-13T17:19:05;6.70;;;1.17;;
76256;SDS011;65074;50.436;8.672;2023-01-13T17:21:31;5.43;;;1.83;;
76256;SDS011;65074;50.436;8.672;2023-01-13T17:23:57;3.13;;;0.68;;
76256;SDS011;65074;50.436;8.672;2023-01-13T17:26:33;2.45;;;0.90;;
76256;SDS011;65074;50.436;8.672;2023-01-13T17:29:04;1.33;;;0.70;;
76256;SDS011;65074;50.436;8.672;2023-01-13T17:31:33;3.63;;;0.82;;
76256;SDS011;65074;50.436;8.672;2023-01-13T17:33:59;3.85;;;1.10;;
76256;SDS011;65074;50.436;8.672;2023-01-13T17:36:25;4.38;;;0.77;;
76256;SDS011;65074;50.436;8.672;2023-01-13T17:38:50;3.40;;;0.68;;
76256;SDS011;65074;50.436;8.672;2023-01-13T17:41:16;4.95;;;1.02;;